PWSweather.com
Personal Weather Stations
Station Observations
PWSLORIS
The Farm At Fox Bay, Loris, SC 29569

The Farm At Fox BayLoris, SC 29569

Lat: 34.067097, Lon: -78.86907

Elevation: 108

Station Type: Davis Vantage Pro2 with 24 hr. FARS and solar

http://www.lorisweather.com

Latest ConditionsUpdated 10:30:01 AM EDT Friday, Jul 20, 2018
Currently Today's Max Today's Min Today's Average
Temperature 75.1°F23.9°C 76.4°F24.7°C 74.2°F23.4°C 74.9°F23.8°C
Dew Point 73.6°F23.1°C 73.6°F23.1°C 70.8°F21.6°C 71.9°F22.2°C
Winds 2.3 mph ENE3.7 kmh ENE 2.3 mph -3.7 kmh - - 0.1 mph 0.2 kmh
Wind Gusts 5.8 mph9.3 kmh 5.8 mph9.3 kmh - -
Humidity 95% 96% 85% 90%
Pressure 30.00 in1015.9 mb 30.02 in1016.6 mb 29.97 in1014.9 mb -
Precipitation - 0.24 in6.1 mm - -
Hour Temp Dew Point Humidity Winds Wind Gusts Pressure Precip Precip Rate Daily Precip Total
10:30 AM 75.1°F23.9°C 73.6°F23.1°C 95% 2.3 mph ENE3.7 kmh ENE 5.8 mph9.3 kmh 30.00 in1015.9 mb - 0.02 in0.5 mm 0.24 in6.1 mm
10:15 AM 74.8°F23.8°C 73.5°F23.1°C 96% Calm Calm -- 30.00 in1015.9 mb - 0.04 in1.0 mm 0.24 in6.1 mm
10:00 AM 74.5°F23.6°C 73.3°F22.9°C 96% Calm Calm -- 30.00 in1015.9 mb - 0.08 in2.0 mm 0.24 in6.1 mm
09:45 AM 74.3°F23.5°C 73.1°F22.8°C 96% Calm Calm -- 30.00 in1015.9 mb - 0.12 in3.0 mm 0.23 in5.8 mm
09:30 AM 74.2°F23.4°C 73.0°F22.8°C 96% Calm Calm -- 30.00 in1015.9 mb - 0.15 in3.8 mm 0.22 in5.6 mm
09:15 AM 74.2°F23.4°C 73.0°F22.8°C 96% Calm Calm -- 30.00 in1015.9 mb - 0.18 in4.6 mm 0.20 in5.1 mm
09:00 AM 74.2°F23.4°C 73.0°F22.8°C 96% Calm Calm -- 30.01 in1016.3 mb - 0.15 in3.8 mm 0.16 in4.1 mm
08:45 AM 74.2°F23.4°C 73.0°F22.8°C 96% Calm Calm -- 30.00 in1015.9 mb - 0.11 in2.8 mm 0.12 in3.0 mm
08:30 AM 74.3°F23.5°C 72.8°F22.7°C 95% Calm Calm -- 29.99 in1015.6 mb - 0.06 in1.5 mm 0.07 in1.8 mm
08:15 AM 74.4°F23.6°C 72.6°F22.6°C 94% Calm Calm -- 29.99 in1015.6 mb - 0.02 in0.5 mm 0.02 in0.5 mm
08:00 AM 74.4°F23.6°C 72.2°F22.3°C 93% Calm Calm -- 30.00 in1015.9 mb - 0.01 in0.3 mm 0.01 in0.3 mm
07:45 AM 74.4°F23.6°C 72.2°F22.3°C 93% Calm Calm -- 29.99 in1015.6 mb - 0.01 in0.3 mm 0.01 in0.3 mm
07:30 AM 74.3°F23.5°C 72.1°F22.3°C 93% 1.2 mph NE1.9 kmh NE 5.8 mph9.3 kmh 29.98 in1015.2 mb - 0.01 in0.3 mm 0.01 in0.3 mm
07:15 AM 74.3°F23.5°C 71.8°F22.1°C 92% Calm Calm -- 29.98 in1015.2 mb - 0.00 in0.0 mm 0.00 in0.0 mm
07:00 AM 74.3°F23.5°C 71.5°F21.9°C 91% Calm Calm 5.8 mph9.3 kmh 29.98 in1015.2 mb - 0.00 in0.0 mm 0.00 in0.0 mm
06:45 AM 74.2°F23.4°C 71.1°F21.7°C 90% Calm Calm 3.5 mph5.6 kmh 29.98 in1015.2 mb - 0.00 in0.0 mm 0.00 in0.0 mm
06:30 AM 74.2°F23.4°C 71.1°F21.7°C 90% Calm Calm -- 29.97 in1014.9 mb - 0.00 in0.0 mm 0.00 in0.0 mm
06:15 AM 74.4°F23.6°C 70.9°F21.6°C 89% Calm Calm -- 29.97 in1014.9 mb - 0.00 in0.0 mm 0.00 in0.0 mm
06:00 AM 74.6°F23.7°C 71.1°F21.7°C 89% Calm Calm -- 29.98 in1015.2 mb - 0.00 in0.0 mm 0.00 in0.0 mm
05:45 AM 74.6°F23.7°C 70.8°F21.6°C 88% Calm Calm -- 29.98 in1015.2 mb - 0.00 in0.0 mm 0.00 in0.0 mm
05:30 AM 74.8°F23.8°C 71.0°F21.7°C 88% Calm Calm -- 29.97 in1014.9 mb - 0.00 in0.0 mm 0.00 in0.0 mm
05:15 AM 74.9°F23.8°C 71.4°F21.9°C 89% Calm Calm 3.5 mph5.6 kmh 29.97 in1014.9 mb - 0.00 in0.0 mm 0.00 in0.0 mm
05:00 AM 75.0°F23.9°C 71.2°F21.8°C 88% Calm Calm -- 29.97 in1014.9 mb - 0.00 in0.0 mm 0.00 in0.0 mm
04:45 AM 75.0°F23.9°C 71.5°F21.9°C 89% Calm Calm -- 29.97 in1014.9 mb - 0.00 in0.0 mm 0.00 in0.0 mm
04:30 AM 75.1°F23.9°C 71.3°F21.8°C 88% Calm Calm -- 29.98 in1015.2 mb - 0.00 in0.0 mm 0.00 in0.0 mm
04:15 AM 75.1°F23.9°C 71.3°F21.8°C 88% 1.2 mph E1.9 kmh E 1.2 mph1.9 kmh 29.98 in1015.2 mb - 0.00 in0.0 mm 0.00 in0.0 mm
04:00 AM 75.2°F24.0°C 71.4°F21.9°C 88% 1.2 mph ENE1.9 kmh ENE 3.5 mph5.6 kmh 29.98 in1015.2 mb - 0.00 in0.0 mm 0.00 in0.0 mm
03:45 AM 75.1°F23.9°C 71.6°F22.0°C 89% Calm Calm 2.3 mph3.7 kmh 29.98 in1015.2 mb - 0.00 in0.0 mm 0.00 in0.0 mm
03:30 AM 75.0°F23.9°C 71.2°F21.8°C 88% Calm Calm -- 29.99 in1015.6 mb - 0.00 in0.0 mm 0.00 in0.0 mm
03:15 AM 75.2°F24.0°C 71.4°F21.9°C 88% Calm Calm -- 29.99 in1015.6 mb - 0.00 in0.0 mm 0.00 in0.0 mm
03:00 AM 75.3°F24.1°C 71.5°F21.9°C 88% Calm Calm -- 29.98 in1015.2 mb - 0.00 in0.0 mm 0.00 in0.0 mm
02:45 AM 75.4°F24.1°C 71.6°F22.0°C 88% Calm Calm -- 29.98 in1015.2 mb - 0.00 in0.0 mm 0.00 in0.0 mm
02:30 AM 75.5°F24.2°C 71.7°F22.1°C 88% Calm Calm -- 29.98 in1015.2 mb - 0.00 in0.0 mm 0.00 in0.0 mm
02:15 AM 75.5°F24.2°C 71.7°F22.1°C 88% Calm Calm -- 29.99 in1015.6 mb - 0.00 in0.0 mm 0.00 in0.0 mm
02:00 AM 75.5°F24.2°C 71.7°F22.1°C 88% Calm Calm -- 30.00 in1015.9 mb - 0.00 in0.0 mm 0.00 in0.0 mm
01:45 AM 75.4°F24.1°C 71.6°F22.0°C 88% Calm Calm -- 30.00 in1015.9 mb - 0.00 in0.0 mm 0.00 in0.0 mm
01:30 AM 75.4°F24.1°C 71.6°F22.0°C 88% Calm Calm -- 30.01 in1016.3 mb - 0.00 in0.0 mm 0.00 in0.0 mm
01:15 AM 75.4°F24.1°C 71.6°F22.0°C 88% Calm Calm -- 30.01 in1016.3 mb - 0.00 in0.0 mm 0.00 in0.0 mm
01:00 AM 75.7°F24.3°C 71.6°F22.0°C 87% Calm Calm -- 30.01 in1016.3 mb - 0.00 in0.0 mm 0.00 in0.0 mm
12:45 AM 75.8°F24.3°C 71.7°F22.1°C 87% Calm Calm -- 30.02 in1016.6 mb - 0.00 in0.0 mm 0.00 in0.0 mm
12:30 AM 75.9°F24.4°C 71.4°F21.9°C 86% Calm Calm -- 30.01 in1016.3 mb - 0.00 in0.0 mm 0.00 in0.0 mm
12:15 AM 76.1°F24.5°C 71.6°F22.0°C 86% Calm Calm -- 30.02 in1016.6 mb - 0.00 in0.0 mm 0.00 in0.0 mm
12:00 AM 76.4°F24.7°C 71.5°F21.9°C 85% Calm Calm -- 30.02 in1016.6 mb - 0.00 in0.0 mm 0.00 in0.0 mm